sensor_id;sensor_type;location;lat;lon;timestamp;temperature;humidity
14884;DHT22;7534;50.762;7.000;2023-07-08T00:00:47;19.50;93.00
14884;DHT22;7534;50.762;7.000;2023-07-08T00:03:17;19.50;93.30
14884;DHT22;7534;50.762;7.000;2023-07-08T00:05:44;19.40;93.50
14884;DHT22;7534;50.762;7.000;2023-07-08T00:08:16;19.30;93.50
14884;DHT22;7534;50.762;7.000;2023-07-08T00:10:44;19.40;93.80
14884;DHT22;7534;50.762;7.000;2023-07-08T00:13:10;19.40;93.80
14884;DHT22;7534;50.762;7.000;2023-07-08T00:15:36;19.40;93.90
14884;DHT22;7534;50.762;7.000;2023-07-08T00:18:15;19.40;94.10
14884;DHT22;7534;50.762;7.000;2023-07-08T00:20:48;19.40;94.10
14884;DHT22;7534;50.762;7.000;2023-07-08T00:23:15;19.40;93.80
14884;DHT22;7534;50.762;7.000;2023-07-08T00:25:42;19.40;94.10
14884;DHT22;7534;50.762;7.000;2023-07-08T00:28:18;19.40;94.00
14884;DHT22;7534;50.762;7.000;2023-07-08T00:30:45;19.40;94.00
14884;DHT22;7534;50.762;7.000;2023-07-08T00:33:11;19.40;93.90
14884;DHT22;7534;50.762;7.000;2023-07-08T00:35:37;19.40;94.00
14884;DHT22;7534;50.762;7.000;2023-07-08T00:38:24;19.40;93.90
14884;DHT22;7534;50.762;7.000;2023-07-08T00:43:45;19.40;94.50
14884;DHT22;7534;50.762;7.000;2023-07-08T00:46:31;19.40;94.10
14884;DHT22;7534;50.762;7.000;2023-07-08T00:49:05;19.40;94.00
14884;DHT22;7534;50.762;7.000;2023-07-08T00:51:41;19.40;94.00
14884;DHT22;7534;50.762;7.000;2023-07-08T00:54:14;19.40;94.10
14884;DHT22;7534;50.762;7.000;2023-07-08T00:56:53;19.40;94.20
14884;DHT22;7534;50.762;7.000;2023-07-08T00:59:31;19.40;94.10
14884;DHT22;7534;50.762;7.000;2023-07-08T01:02:04;19.40;94.10
14884;DHT22;7534;50.762;7.000;2023-07-08T01:04:49;19.30;94.10
14884;DHT22;7534;50.762;7.000;2023-07-08T01:07:20;19.30;94.20
14884;DHT22;7534;50.762;7.000;2023-07-08T01:09:55;19.30;94.30
14884;DHT22;7534;50.762;7.000;2023-07-08T01:12:34;19.30;94.10
14884;DHT22;7534;50.762;7.000;2023-07-08T01:15:03;19.30;94.20
14884;DHT22;7534;50.762;7.000;2023-07-08T01:17:31;19.30;94.20
14884;DHT22;7534;50.762;7.000;2023-07-08T01:19:59;19.30;93.70
14884;DHT22;7534;50.762;7.000;2023-07-08T01:22:26;19.20;93.70
14884;DHT22;7534;50.762;7.000;2023-07-08T01:24:57;19.20;93.70
14884;DHT22;7534;50.762;7.000;2023-07-08T01:27:30;19.10;94.00
14884;DHT22;7534;50.762;7.000;2023-07-08T01:29:59;19.10;94.20
14884;DHT22;7534;50.762;7.000;2023-07-08T01:32:28;19.10;94.30
14884;DHT22;7534;50.762;7.000;2023-07-08T01:34:58;19.00;94.50
14884;DHT22;7534;50.762;7.000;2023-07-08T01:43:00;18.90;96.10
14884;DHT22;7534;50.762;7.000;2023-07-08T01:45:29;18.70;97.70
14884;DHT22;7534;50.762;7.000;2023-07-08T01:48:19;18.60;99.60
14884;DHT22;7534;50.762;7.000;2023-07-08T01:50:57;18.50;95.70
14884;DHT22;7534;50.762;7.000;2023-07-08T01:53:33;18.50;96.20
14884;DHT22;7534;50.762;7.000;2023-07-08T01:56:02;18.40;96.50
14884;DHT22;7534;50.762;7.000;2023-07-08T01:58:29;18.30;96.70
14884;DHT22;7534;50.762;7.000;2023-07-08T02:00:55;18.30;96.90
14884;DHT22;7534;50.762;7.000;2023-07-08T02:03:22;18.20;97.10
14884;DHT22;7534;50.762;7.000;2023-07-08T02:05:48;18.10;97.30
14884;DHT22;7534;50.762;7.000;2023-07-08T02:08:14;18.10;97.50
14884;DHT22;7534;50.762;7.000;2023-07-08T02:10:41;18.00;97.60
14884;DHT22;7534;50.762;7.000;2023-07-08T02:13:08;18.00;97.80
14884;DHT22;7534;50.762;7.000;2023-07-08T02:15:34;17.90;97.90
14884;DHT22;7534;50.762;7.000;2023-07-08T02:18:00;17.90;97.90
14884;DHT22;7534;50.762;7.000;2023-07-08T02:20:25;17.80;98.00
14884;DHT22;7534;50.762;7.000;2023-07-08T02:22:51;17.70;98.10
14884;DHT22;7534;50.762;7.000;2023-07-08T02:25:17;17.80;98.10
14884;DHT22;7534;50.762;7.000;2023-07-08T02:27:43;17.70;98.10
14884;DHT22;7534;50.762;7.000;2023-07-08T02:30:10;17.70;98.20
14884;DHT22;7534;50.762;7.000;2023-07-08T02:32:36;17.70;98.40
14884;DHT22;7534;50.762;7.000;2023-07-08T02:35:05;17.60;98.90
14884;DHT22;7534;50.762;7.000;2023-07-08T02:37:32;17.50;98.60
14884;DHT22;7534;50.762;7.000;2023-07-08T02:39:58;17.50;98.80
14884;DHT22;7534;50.762;7.000;2023-07-08T02:42:24;17.50;98.80
14884;DHT22;7534;50.762;7.000;2023-07-08T02:44:49;17.40;98.70
14884;DHT22;7534;50.762;7.000;2023-07-08T02:47:15;17.40;98.90
14884;DHT22;7534;50.762;7.000;2023-07-08T02:49:41;17.40;99.00
14884;DHT22;7534;50.762;7.000;2023-07-08T02:52:07;17.30;99.00
14884;DHT22;7534;50.762;7.000;2023-07-08T02:54:33;17.30;98.90
14884;DHT22;7534;50.762;7.000;2023-07-08T02:56:59;17.30;99.10
14884;DHT22;7534;50.762;7.000;2023-07-08T02:59:25;17.30;99.10
14884;DHT22;7534;50.762;7.000;2023-07-08T03:01:53;17.30;99.10
14884;DHT22;7534;50.762;7.000;2023-07-08T03:04:19;17.30;98.90
14884;DHT22;7534;50.762;7.000;2023-07-08T03:06:49;17.30;98.90
14884;DHT22;7534;50.762;7.000;2023-07-08T03:09:16;17.30;99.30
14884;DHT22;7534;50.762;7.000;2023-07-08T03:11:42;17.30;98.90
14884;DHT22;7534;50.762;7.000;2023-07-08T03:14:09;17.30;98.90
14884;DHT22;7534;50.762;7.000;2023-07-08T03:16:35;17.30;99.00
14884;DHT22;7534;50.762;7.000;2023-07-08T03:19:01;17.30;99.10
14884;DHT22;7534;50.762;7.000;2023-07-08T03:21:26;17.30;99.10
14884;DHT22;7534;50.762;7.000;2023-07-08T03:23:52;17.40;99.20
14884;DHT22;7534;50.762;7.000;2023-07-08T03:26:23;17.50;99.10
14884;DHT22;7534;50.762;7.000;2023-07-08T03:28:51;17.60;98.80
14884;DHT22;7534;50.762;7.000;2023-07-08T03:31:17;17.60;98.80
14884;DHT22;7534;50.762;7.000;2023-07-08T03:33:43;17.70;98.70
14884;DHT22;7534;50.762;7.000;2023-07-08T03:36:17;17.60;98.70
14884;DHT22;7534;50.762;7.000;2023-07-08T03:38:51;17.80;98.60
14884;DHT22;7534;50.762;7.000;2023-07-08T03:41:19;17.80;98.90
14884;DHT22;7534;50.762;7.000;2023-07-08T03:43:45;17.90;98.70
14884;DHT22;7534;50.762;7.000;2023-07-08T03:46:11;18.00;98.60
14884;DHT22;7534;50.762;7.000;2023-07-08T03:48:38;18.00;98.50
14884;DHT22;7534;50.762;7.000;2023-07-08T03:51:09;18.00;98.40
14884;DHT22;7534;50.762;7.000;2023-07-08T03:53:47;18.10;98.70
14884;DHT22;7534;50.762;7.000;2023-07-08T03:56:13;18.10;98.40
14884;DHT22;7534;50.762;7.000;2023-07-08T03:58:39;18.10;98.50
14884;DHT22;7534;50.762;7.000;2023-07-08T04:01:07;18.10;98.70
14884;DHT22;7534;50.762;7.000;2023-07-08T04:03:38;17.90;98.70
14884;DHT22;7534;50.762;7.000;2023-07-08T04:06:04;18.00;98.80
14884;DHT22;7534;50.762;7.000;2023-07-08T04:08:30;18.20;98.50
14884;DHT22;7534;50.762;7.000;2023-07-08T04:10:55;18.40;98.50
14884;DHT22;7534;50.762;7.000;2023-07-08T04:13:21;18.50;98.40
14884;DHT22;7534;50.762;7.000;2023-07-08T04:15:52;18.70;98.40
14884;DHT22;7534;50.762;7.000;2023-07-08T04:18:23;18.80;98.20
14884;DHT22;7534;50.762;7.000;2023-07-08T04:20:49;18.90;98.10
14884;DHT22;7534;50.762;7.000;2023-07-08T04:23:21;19.10;98.00
14884;DHT22;7534;50.762;7.000;2023-07-08T04:25:49;19.20;97.70
14884;DHT22;7534;50.762;7.000;2023-07-08T04:28:17;19.30;96.90
14884;DHT22;7534;50.762;7.000;2023-07-08T04:30:43;19.30;96.30
14884;DHT22;7534;50.762;7.000;2023-07-08T04:33:11;19.30;96.40
14884;DHT22;7534;50.762;7.000;2023-07-08T04:35:37;19.40;96.40
14884;DHT22;7534;50.762;7.000;2023-07-08T04:38:23;19.50;96.00
14884;DHT22;7534;50.762;7.000;2023-07-08T04:40:52;19.60;95.80
14884;DHT22;7534;50.762;7.000;2023-07-08T04:43:19;19.80;95.30
14884;DHT22;7534;50.762;7.000;2023-07-08T04:45:51;19.80;95.20
14884;DHT22;7534;50.762;7.000;2023-07-08T04:48:19;19.80;95.20
14884;DHT22;7534;50.762;7.000;2023-07-08T04:50:51;20.70;94.40
14884;DHT22;7534;50.762;7.000;2023-07-08T04:53:17;22.10;92.10
14884;DHT22;7534;50.762;7.000;2023-07-08T04:55:45;23.50;90.00
14884;DHT22;7534;50.762;7.000;2023-07-08T04:58:14;25.00;85.00
14884;DHT22;7534;50.762;7.000;2023-07-08T05:00:39;26.50;78.40
14884;DHT22;7534;50.762;7.000;2023-07-08T05:03:05;27.60;72.00
14884;DHT22;7534;50.762;7.000;2023-07-08T05:05:31;28.10;68.00
14884;DHT22;7534;50.762;7.000;2023-07-08T05:07:56;27.90;66.40
14884;DHT22;7534;50.762;7.000;2023-07-08T05:10:22;27.50;67.30
14884;DHT22;7534;50.762;7.000;2023-07-08T05:12:48;26.70;68.50
14884;DHT22;7534;50.762;7.000;2023-07-08T05:15:15;25.70;71.90
14884;DHT22;7534;50.762;7.000;2023-07-08T05:17:41;24.90;75.20
14884;DHT22;7534;50.762;7.000;2023-07-08T05:20:10;24.50;77.30
14884;DHT22;7534;50.762;7.000;2023-07-08T05:22:38;24.20;79.20
14884;DHT22;7534;50.762;7.000;2023-07-08T05:25:05;24.00;80.60
14884;DHT22;7534;50.762;7.000;2023-07-08T05:27:31;23.60;82.10
14884;DHT22;7534;50.762;7.000;2023-07-08T05:30:04;23.40;83.60
14884;DHT22;7534;50.762;7.000;2023-07-08T05:32:32;23.40;84.10
14884;DHT22;7534;50.762;7.000;2023-07-08T05:34:58;24.20;83.30
14884;DHT22;7534;50.762;7.000;2023-07-08T05:37:24;25.30;79.00
14884;DHT22;7534;50.762;7.000;2023-07-08T05:39:54;25.50;76.90
14884;DHT22;7534;50.762;7.000;2023-07-08T05:42:21;25.30;77.50
14884;DHT22;7534;50.762;7.000;2023-07-08T05:44:47;24.70;78.90
14884;DHT22;7534;50.762;7.000;2023-07-08T05:47:13;24.20;81.30
14884;DHT22;7534;50.762;7.000;2023-07-08T05:49:40;23.80;83.30
14884;DHT22;7534;50.762;7.000;2023-07-08T05:52:06;23.70;85.30
14884;DHT22;7534;50.762;7.000;2023-07-08T05:54:37;23.50;85.00
14884;DHT22;7534;50.762;7.000;2023-07-08T05:57:04;23.40;85.60
14884;DHT22;7534;50.762;7.000;2023-07-08T05:59:32;23.40;86.20
14884;DHT22;7534;50.762;7.000;2023-07-08T06:01:58;23.40;87.30
14884;DHT22;7534;50.762;7.000;2023-07-08T06:04:23;23.50;88.10
14884;DHT22;7534;50.762;7.000;2023-07-08T06:06:49;23.60;87.50
14884;DHT22;7534;50.762;7.000;2023-07-08T06:09:15;23.80;86.40
14884;DHT22;7534;50.762;7.000;2023-07-08T06:11:40;23.90;85.40
14884;DHT22;7534;50.762;7.000;2023-07-08T06:14:06;24.00;83.40
14884;DHT22;7534;50.762;7.000;2023-07-08T06:16:31;24.00;83.90
14884;DHT22;7534;50.762;7.000;2023-07-08T06:18:59;23.90;79.30
14884;DHT22;7534;50.762;7.000;2023-07-08T06:21:25;24.00;78.00
14884;DHT22;7534;50.762;7.000;2023-07-08T06:23:51;24.10;77.60
14884;DHT22;7534;50.762;7.000;2023-07-08T06:26:17;24.20;78.40
14884;DHT22;7534;50.762;7.000;2023-07-08T06:28:42;24.40;77.50
14884;DHT22;7534;50.762;7.000;2023-07-08T06:31:08;24.50;77.20
14884;DHT22;7534;50.762;7.000;2023-07-08T06:33:34;24.70;75.20
14884;DHT22;7534;50.762;7.000;2023-07-08T06:35:59;24.80;75.80
14884;DHT22;7534;50.762;7.000;2023-07-08T06:38:25;25.00;75.10
14884;DHT22;7534;50.762;7.000;2023-07-08T06:40:50;25.20;74.10
14884;DHT22;7534;50.762;7.000;2023-07-08T06:43:16;25.50;72.60
14884;DHT22;7534;50.762;7.000;2023-07-08T06:45:43;25.80;70.40
14884;DHT22;7534;50.762;7.000;2023-07-08T06:48:09;25.80;70.00
14884;DHT22;7534;50.762;7.000;2023-07-08T06:50:35;26.10;69.50
14884;DHT22;7534;50.762;7.000;2023-07-08T06:53:00;26.40;66.60
14884;DHT22;7534;50.762;7.000;2023-07-08T06:55:26;26.70;65.70
14884;DHT22;7534;50.762;7.000;2023-07-08T06:57:52;27.40;65.00
14884;DHT22;7534;50.762;7.000;2023-07-08T07:00:17;29.80;56.00
14884;DHT22;7534;50.762;7.000;2023-07-08T07:02:43;31.40;51.80
14884;DHT22;7534;50.762;7.000;2023-07-08T07:05:09;35.00;41.90
14884;DHT22;7534;50.762;7.000;2023-07-08T07:07:35;36.80;37.10
14884;DHT22;7534;50.762;7.000;2023-07-08T07:10:01;38.60;31.90
14884;DHT22;7534;50.762;7.000;2023-07-08T07:12:28;36.10;32.50
14884;DHT22;7534;50.762;7.000;2023-07-08T07:14:54;33.60;36.30
14884;DHT22;7534;50.762;7.000;2023-07-08T07:17:23;33.90;36.40
14884;DHT22;7534;50.762;7.000;2023-07-08T07:19:51;35.50;35.40
14884;DHT22;7534;50.762;7.000;2023-07-08T07:22:17;36.50;33.30
14884;DHT22;7534;50.762;7.000;2023-07-08T07:24:43;37.40;31.80
14884;DHT22;7534;50.762;7.000;2023-07-08T07:27:09;38.00;30.80
14884;DHT22;7534;50.762;7.000;2023-07-08T07:29:47;39.10;30.00
14884;DHT22;7534;50.762;7.000;2023-07-08T07:32:16;40.70;28.10
14884;DHT22;7534;50.762;7.000;2023-07-08T07:34:46;39.10;28.00
14884;DHT22;7534;50.762;7.000;2023-07-08T07:37:13;39.30;28.10
14884;DHT22;7534;50.762;7.000;2023-07-08T07:39:41;38.80;28.40
14884;DHT22;7534;50.762;7.000;2023-07-08T07:42:08;38.80;29.10
14884;DHT22;7534;50.762;7.000;2023-07-08T07:44:34;39.80;27.20
14884;DHT22;7534;50.762;7.000;2023-07-08T07:47:02;39.50;26.80
14884;DHT22;7534;50.762;7.000;2023-07-08T07:49:28;38.80;27.00
14884;DHT22;7534;50.762;7.000;2023-07-08T07:51:54;38.90;26.30
14884;DHT22;7534;50.762;7.000;2023-07-08T07:54:20;40.00;26.20
14884;DHT22;7534;50.762;7.000;2023-07-08T07:56:46;40.40;25.00
14884;DHT22;7534;50.762;7.000;2023-07-08T07:59:12;39.50;25.40
14884;DHT22;7534;50.762;7.000;2023-07-08T08:01:38;39.40;25.40
14884;DHT22;7534;50.762;7.000;2023-07-08T08:04:04;39.40;25.40
14884;DHT22;7534;50.762;7.000;2023-07-08T08:06:30;39.50;25.30
14884;DHT22;7534;50.762;7.000;2023-07-08T08:08:56;38.50;26.10
14884;DHT22;7534;50.762;7.000;2023-07-08T08:11:24;38.40;26.30
14884;DHT22;7534;50.762;7.000;2023-07-08T08:13:51;38.60;26.40
14884;DHT22;7534;50.762;7.000;2023-07-08T08:16:17;38.40;26.20
14884;DHT22;7534;50.762;7.000;2023-07-08T08:18:43;38.20;26.30
14884;DHT22;7534;50.762;7.000;2023-07-08T08:21:09;38.20;26.60
14884;DHT22;7534;50.762;7.000;2023-07-08T08:23:34;38.90;26.40
14884;DHT22;7534;50.762;7.000;2023-07-08T08:26:00;39.50;25.80
14884;DHT22;7534;50.762;7.000;2023-07-08T08:28:26;39.00;25.70
14884;DHT22;7534;50.762;7.000;2023-07-08T08:30:51;38.70;26.10
14884;DHT22;7534;50.762;7.000;2023-07-08T08:33:18;38.80;25.90
14884;DHT22;7534;50.762;7.000;2023-07-08T08:35:45;38.90;25.90
14884;DHT22;7534;50.762;7.000;2023-07-08T08:38:11;39.60;26.10
14884;DHT22;7534;50.762;7.000;2023-07-08T08:40:37;40.10;25.10
14884;DHT22;7534;50.762;7.000;2023-07-08T08:43:09;40.20;25.20
14884;DHT22;7534;50.762;7.000;2023-07-08T08:48:58;40.90;24.80
14884;DHT22;7534;50.762;7.000;2023-07-08T08:51:31;39.80;25.30
14884;DHT22;7534;50.762;7.000;2023-07-08T08:53:58;39.10;25.90
14884;DHT22;7534;50.762;7.000;2023-07-08T08:56:31;39.50;25.80
14884;DHT22;7534;50.762;7.000;2023-07-08T08:59:24;40.20;25.70
14884;DHT22;7534;50.762;7.000;2023-07-08T09:01:58;41.00;24.70
14884;DHT22;7534;50.762;7.000;2023-07-08T09:04:32;41.30;24.20
14884;DHT22;7534;50.762;7.000;2023-07-08T09:07:14;41.00;24.70
14884;DHT22;7534;50.762;7.000;2023-07-08T09:09:52;41.00;24.60
14884;DHT22;7534;50.762;7.000;2023-07-08T09:12:29;40.90;24.80
14884;DHT22;7534;50.762;7.000;2023-07-08T09:14:56;40.20;25.10
14884;DHT22;7534;50.762;7.000;2023-07-08T09:17:23;40.10;25.20
14884;DHT22;7534;50.762;7.000;2023-07-08T09:20:17;40.20;25.30
14884;DHT22;7534;50.762;7.000;2023-07-08T09:23:01;40.40;25.10
14884;DHT22;7534;50.762;7.000;2023-07-08T09:25:54;40.50;24.80
14884;DHT22;7534;50.762;7.000;2023-07-08T09:28:42;40.10;25.30
14884;DHT22;7534;50.762;7.000;2023-07-08T09:31:22;40.70;25.40
14884;DHT22;7534;50.762;7.000;2023-07-08T09:34:12;41.50;24.60
14884;DHT22;7534;50.762;7.000;2023-07-08T09:36:45;41.90;24.20
14884;DHT22;7534;50.762;7.000;2023-07-08T09:39:14;42.00;23.80
14884;DHT22;7534;50.762;7.000;2023-07-08T09:41:43;41.50;24.00
14884;DHT22;7534;50.762;7.000;2023-07-08T09:44:25;41.20;24.60
14884;DHT22;7534;50.762;7.000;2023-07-08T09:46:56;40.50;25.00
14884;DHT22;7534;50.762;7.000;2023-07-08T09:49:31;40.60;25.30
14884;DHT22;7534;50.762;7.000;2023-07-08T09:51:59;40.90;25.60
14884;DHT22;7534;50.762;7.000;2023-07-08T09:54:27;41.20;24.90
14884;DHT22;7534;50.762;7.000;2023-07-08T09:56:59;41.50;24.30
14884;DHT22;7534;50.762;7.000;2023-07-08T09:59:41;40.60;25.10
14884;DHT22;7534;50.762;7.000;2023-07-08T10:05:32;42.20;24.60
14884;DHT22;7534;50.762;7.000;2023-07-08T10:08:02;42.30;23.80
14884;DHT22;7534;50.762;7.000;2023-07-08T10:10:37;42.30;24.00
14884;DHT22;7534;50.762;7.000;2023-07-08T10:13:12;42.20;23.70
14884;DHT22;7534;50.762;7.000;2023-07-08T10:15:49;42.00;23.90
14884;DHT22;7534;50.762;7.000;2023-07-08T10:18:27;42.30;23.90
14884;DHT22;7534;50.762;7.000;2023-07-08T10:20:59;42.30;23.60
14884;DHT22;7534;50.762;7.000;2023-07-08T10:27:25;42.80;23.30
14884;DHT22;7534;50.762;7.000;2023-07-08T10:30:11;43.10;23.20
14884;DHT22;7534;50.762;7.000;2023-07-08T10:33:11;42.60;23.30
14884;DHT22;7534;50.762;7.000;2023-07-08T10:35:49;42.00;24.00
14884;DHT22;7534;50.762;7.000;2023-07-08T10:44:56;41.20;25.30
14884;DHT22;7534;50.762;7.000;2023-07-08T10:47:43;41.20;24.80
14884;DHT22;7534;50.762;7.000;2023-07-08T10:53:47;40.10;25.40
14884;DHT22;7534;50.762;7.000;2023-07-08T10:56:21;39.10;26.50
14884;DHT22;7534;50.762;7.000;2023-07-08T10:59:07;38.60;27.00
14884;DHT22;7534;50.762;7.000;2023-07-08T11:04:56;38.40;27.70
14884;DHT22;7534;50.762;7.000;2023-07-08T11:07:39;38.10;27.70
14884;DHT22;7534;50.762;7.000;2023-07-08T11:13:21;37.70;28.20
14884;DHT22;7534;50.762;7.000;2023-07-08T11:15:55;37.60;28.40
14884;DHT22;7534;50.762;7.000;2023-07-08T11:18:50;37.80;28.20
14884;DHT22;7534;50.762;7.000;2023-07-08T11:21:26;37.90;28.80
14884;DHT22;7534;50.762;7.000;2023-07-08T11:24:06;37.90;28.30
14884;DHT22;7534;50.762;7.000;2023-07-08T11:27:15;37.70;28.70
14884;DHT22;7534;50.762;7.000;2023-07-08T11:32:43;36.60;29.00
14884;DHT22;7534;50.762;7.000;2023-07-08T11:35:21;36.50;29.60
14884;DHT22;7534;50.762;7.000;2023-07-08T11:37:53;36.50;29.30
14884;DHT22;7534;50.762;7.000;2023-07-08T11:40:22;36.30;29.00
14884;DHT22;7534;50.762;7.000;2023-07-08T11:42:51;36.30;29.40
14884;DHT22;7534;50.762;7.000;2023-07-08T11:47:45;36.40;29.40
14884;DHT22;7534;50.762;7.000;2023-07-08T11:50:45;36.50;29.00
14884;DHT22;7534;50.762;7.000;2023-07-08T11:53:32;36.30;28.90
14884;DHT22;7534;50.762;7.000;2023-07-08T11:58:50;36.40;29.50
14884;DHT22;7534;50.762;7.000;2023-07-08T12:01:24;36.30;29.10
14884;DHT22;7534;50.762;7.000;2023-07-08T12:04:15;36.10;28.80
14884;DHT22;7534;50.762;7.000;2023-07-08T12:07:02;36.50;28.60
14884;DHT22;7534;50.762;7.000;2023-07-08T12:09:37;36.50;28.30
14884;DHT22;7534;50.762;7.000;2023-07-08T12:12:23;36.40;28.70
14884;DHT22;7534;50.762;7.000;2023-07-08T12:14:53;36.70;29.20
14884;DHT22;7534;50.762;7.000;2023-07-08T12:17:24;36.70;28.30
14884;DHT22;7534;50.762;7.000;2023-07-08T12:19:50;36.70;28.30
14884;DHT22;7534;50.762;7.000;2023-07-08T12:22:16;36.80;29.10
14884;DHT22;7534;50.762;7.000;2023-07-08T12:24:44;36.80;28.60
14884;DHT22;7534;50.762;7.000;2023-07-08T12:27:10;36.80;29.10
14884;DHT22;7534;50.762;7.000;2023-07-08T12:29:36;36.90;28.80
14884;DHT22;7534;50.762;7.000;2023-07-08T12:32:02;36.80;29.00
14884;DHT22;7534;50.762;7.000;2023-07-08T12:34:29;37.00;29.00
14884;DHT22;7534;50.762;7.000;2023-07-08T12:36:54;37.20;27.80
14884;DHT22;7534;50.762;7.000;2023-07-08T12:39:21;37.40;27.70
14884;DHT22;7534;50.762;7.000;2023-07-08T12:41:47;37.40;28.50
14884;DHT22;7534;50.762;7.000;2023-07-08T12:44:23;37.60;27.90
14884;DHT22;7534;50.762;7.000;2023-07-08T12:46:53;37.60;27.40
14884;DHT22;7534;50.762;7.000;2023-07-08T12:49:20;37.70;27.80
14884;DHT22;7534;50.762;7.000;2023-07-08T12:51:52;37.60;27.50
14884;DHT22;7534;50.762;7.000;2023-07-08T12:54:18;37.70;27.70
14884;DHT22;7534;50.762;7.000;2023-07-08T12:56:45;37.80;27.80
14884;DHT22;7534;50.762;7.000;2023-07-08T12:59:19;37.50;27.70
14884;DHT22;7534;50.762;7.000;2023-07-08T13:01:47;37.50;28.00
14884;DHT22;7534;50.762;7.000;2023-07-08T13:04:15;37.20;28.20
14884;DHT22;7534;50.762;7.000;2023-07-08T13:06:43;37.30;28.50
14884;DHT22;7534;50.762;7.000;2023-07-08T13:09:37;37.20;28.20
14884;DHT22;7534;50.762;7.000;2023-07-08T13:12:26;37.40;28.40
14884;DHT22;7534;50.762;7.000;2023-07-08T13:14:53;37.60;27.80
14884;DHT22;7534;50.762;7.000;2023-07-08T13:17:23;37.50;27.60
14884;DHT22;7534;50.762;7.000;2023-07-08T13:19:49;37.40;27.70
14884;DHT22;7534;50.762;7.000;2023-07-08T13:22:18;37.70;27.70
14884;DHT22;7534;50.762;7.000;2023-07-08T13:24:46;37.60;27.80
14884;DHT22;7534;50.762;7.000;2023-07-08T13:27:23;37.50;27.60
14884;DHT22;7534;50.762;7.000;2023-07-08T13:30:16;37.90;27.90
14884;DHT22;7534;50.762;7.000;2023-07-08T13:32:51;38.10;27.50
14884;DHT22;7534;50.762;7.000;2023-07-08T13:35:36;38.00;27.50
14884;DHT22;7534;50.762;7.000;2023-07-08T13:38:03;38.30;27.80
14884;DHT22;7534;50.762;7.000;2023-07-08T13:40:31;38.50;27.70
14884;DHT22;7534;50.762;7.000;2023-07-08T13:42:57;38.60;27.40
14884;DHT22;7534;50.762;7.000;2023-07-08T13:45:31;38.60;27.20
14884;DHT22;7534;50.762;7.000;2023-07-08T13:51:21;38.50;27.40
14884;DHT22;7534;50.762;7.000;2023-07-08T13:56:24;38.50;27.50
14884;DHT22;7534;50.762;7.000;2023-07-08T13:59:01;38.40;27.90
14884;DHT22;7534;50.762;7.000;2023-07-08T14:01:31;38.70;27.80
14884;DHT22;7534;50.762;7.000;2023-07-08T14:03:58;38.80;27.30
14884;DHT22;7534;50.762;7.000;2023-07-08T14:06:32;38.90;27.80
14884;DHT22;7534;50.762;7.000;2023-07-08T14:09:13;38.90;27.20
14884;DHT22;7534;50.762;7.000;2023-07-08T14:11:43;39.20;27.20
14884;DHT22;7534;50.762;7.000;2023-07-08T14:14:10;39.30;27.30
14884;DHT22;7534;50.762;7.000;2023-07-08T14:16:39;39.40;27.30
14884;DHT22;7534;50.762;7.000;2023-07-08T14:19:13;39.20;27.10
14884;DHT22;7534;50.762;7.000;2023-07-08T14:21:42;39.10;27.20
14884;DHT22;7534;50.762;7.000;2023-07-08T14:24:10;38.80;27.80
14884;DHT22;7534;50.762;7.000;2023-07-08T14:26:41;38.90;27.90
14884;DHT22;7534;50.762;7.000;2023-07-08T14:29:11;38.80;28.40
14884;DHT22;7534;50.762;7.000;2023-07-08T14:31:38;38.80;27.90
14884;DHT22;7534;50.762;7.000;2023-07-08T14:34:11;39.00;27.70
14884;DHT22;7534;50.762;7.000;2023-07-08T14:36:38;39.20;27.40
14884;DHT22;7534;50.762;7.000;2023-07-08T14:39:17;39.30;27.50
14884;DHT22;7534;50.762;7.000;2023-07-08T14:41:48;39.60;27.30
14884;DHT22;7534;50.762;7.000;2023-07-08T14:44:33;39.40;26.80
14884;DHT22;7534;50.762;7.000;2023-07-08T14:47:00;39.30;27.20
14884;DHT22;7534;50.762;7.000;2023-07-08T14:49:29;39.00;27.30
14884;DHT22;7534;50.762;7.000;2023-07-08T14:51:55;38.70;26.80
14884;DHT22;7534;50.762;7.000;2023-07-08T14:54:21;38.50;26.90
14884;DHT22;7534;50.762;7.000;2023-07-08T14:56:48;38.40;27.70
14884;DHT22;7534;50.762;7.000;2023-07-08T14:59:17;38.20;28.20
14884;DHT22;7534;50.762;7.000;2023-07-08T15:01:46;38.30;28.10
14884;DHT22;7534;50.762;7.000;2023-07-08T15:04:14;38.00;28.50
14884;DHT22;7534;50.762;7.000;2023-07-08T15:06:42;38.20;28.90
14884;DHT22;7534;50.762;7.000;2023-07-08T15:09:09;37.90;28.80
14884;DHT22;7534;50.762;7.000;2023-07-08T15:11:36;38.00;29.20
14884;DHT22;7534;50.762;7.000;2023-07-08T15:14:12;38.00;29.90
14884;DHT22;7534;50.762;7.000;2023-07-08T15:16:52;38.00;29.10
14884;DHT22;7534;50.762;7.000;2023-07-08T15:19:19;37.90;28.80
14884;DHT22;7534;50.762;7.000;2023-07-08T15:21:45;37.80;30.70
14884;DHT22;7534;50.762;7.000;2023-07-08T15:24:12;37.70;31.40
14884;DHT22;7534;50.762;7.000;2023-07-08T15:26:41;37.50;30.60
14884;DHT22;7534;50.762;7.000;2023-07-08T15:29:23;37.50;32.10
14884;DHT22;7534;50.762;7.000;2023-07-08T15:31:49;37.40;31.80
14884;DHT22;7534;50.762;7.000;2023-07-08T15:34:17;37.30;31.40
14884;DHT22;7534;50.762;7.000;2023-07-08T15:36:44;37.10;34.20
14884;DHT22;7534;50.762;7.000;2023-07-08T15:39:10;37.00;33.00
14884;DHT22;7534;50.762;7.000;2023-07-08T15:41:36;37.10;32.30
14884;DHT22;7534;50.762;7.000;2023-07-08T15:44:08;37.50;29.30
14884;DHT22;7534;50.762;7.000;2023-07-08T15:46:37;38.20;29.30
14884;DHT22;7534;50.762;7.000;2023-07-08T15:49:17;39.10;29.10
14884;DHT22;7534;50.762;7.000;2023-07-08T15:51:44;39.20;27.10
14884;DHT22;7534;50.762;7.000;2023-07-08T15:54:11;38.90;28.80
14884;DHT22;7534;50.762;7.000;2023-07-08T15:56:39;38.80;28.20
14884;DHT22;7534;50.762;7.000;2023-07-08T15:59:28;38.40;29.00
14884;DHT22;7534;50.762;7.000;2023-07-08T16:02:11;38.20;29.80
14884;DHT22;7534;50.762;7.000;2023-07-08T16:04:48;37.90;29.70
14884;DHT22;7534;50.762;7.000;2023-07-08T16:07:14;37.60;32.40
14884;DHT22;7534;50.762;7.000;2023-07-08T16:09:39;37.30;29.80
14884;DHT22;7534;50.762;7.000;2023-07-08T16:12:05;36.90;29.50
14884;DHT22;7534;50.762;7.000;2023-07-08T16:14:34;36.40;29.60
14884;DHT22;7534;50.762;7.000;2023-07-08T16:16:59;36.40;31.50
14884;DHT22;7534;50.762;7.000;2023-07-08T16:19:25;36.30;31.60
14884;DHT22;7534;50.762;7.000;2023-07-08T16:21:51;36.30;31.20
14884;DHT22;7534;50.762;7.000;2023-07-08T16:24:16;36.20;32.50
14884;DHT22;7534;50.762;7.000;2023-07-08T16:26:42;36.20;34.00
14884;DHT22;7534;50.762;7.000;2023-07-08T16:29:14;36.10;33.50
14884;DHT22;7534;50.762;7.000;2023-07-08T16:31:41;36.00;34.40
14884;DHT22;7534;50.762;7.000;2023-07-08T16:34:09;35.90;35.50
14884;DHT22;7534;50.762;7.000;2023-07-08T16:36:35;35.70;36.00
14884;DHT22;7534;50.762;7.000;2023-07-08T16:39:01;35.50;37.30
14884;DHT22;7534;50.762;7.000;2023-07-08T16:41:31;35.30;38.00
14884;DHT22;7534;50.762;7.000;2023-07-08T16:44:13;35.10;39.10
14884;DHT22;7534;50.762;7.000;2023-07-08T16:46:42;34.90;41.10
14884;DHT22;7534;50.762;7.000;2023-07-08T16:49:08;34.70;43.00
14884;DHT22;7534;50.762;7.000;2023-07-08T16:51:35;34.40;44.10
14884;DHT22;7534;50.762;7.000;2023-07-08T16:54:15;33.80;41.40